createdAt,value
2022-12-22T00:00:19.380Z,89.16
2022-12-22T00:03:33.472Z,89.69
2022-12-22T00:06:27.788Z,89.18
2022-12-22T00:09:18.160Z,89.25
2022-12-22T00:12:08.477Z,89.14
2022-12-22T00:14:58.677Z,89.56
2022-12-22T00:17:50.086Z,89.52
2022-12-22T00:20:41.610Z,89.45
2022-12-22T00:23:32.060Z,89.74
2022-12-22T00:26:22.274Z,89.82
2022-12-22T00:29:12.215Z,89.83
2022-12-22T00:32:02.429Z,89.93
2022-12-22T00:34:58.293Z,89.97
2022-12-22T00:37:52.512Z,89.96
2022-12-22T00:40:45.240Z,89.91
2022-12-22T00:43:35.399Z,90.15
2022-12-22T00:46:28.770Z,89.52
2022-12-22T00:49:19.135Z,90.26
2022-12-22T00:52:09.197Z,90.17
2022-12-22T00:54:59.258Z,89.98
2022-12-22T00:57:49.204Z,90.05
2022-12-22T01:00:40.199Z,90.49
2022-12-22T01:03:31.039Z,90.84
2022-12-22T01:06:22.410Z,90.61
2022-12-22T01:09:12.339Z,90.51
2022-12-22T01:12:02.432Z,90.84
2022-12-22T01:14:52.774Z,90.56
2022-12-22T01:17:43.138Z,90.58
2022-12-22T01:20:33.563Z,90.64
2022-12-22T01:23:27.262Z,90.92
2022-12-22T01:26:17.451Z,90.97
2022-12-22T01:29:07.642Z,90.94
2022-12-22T01:31:57.507Z,90.81
2022-12-22T01:34:47.590Z,91.42
2022-12-22T01:37:37.550Z,91.56
2022-12-22T01:40:35.117Z,91.25
2022-12-22T01:43:37.336Z,91.28
2022-12-22T01:46:43.091Z,91.44
2022-12-22T01:49:37.742Z,91.51
2022-12-22T01:52:29.965Z,91.91
2022-12-22T01:55:23.776Z,91.90
2022-12-22T01:58:14.155Z,92.14
2022-12-22T02:01:05.920Z,91.99
2022-12-22T02:03:56.651Z,91.84
2022-12-22T02:06:56.255Z,91.95
2022-12-22T02:09:59.161Z,92.50
2022-12-22T02:12:58.182Z,92.16
2022-12-22T02:15:55.226Z,91.98
2022-12-22T02:18:52.535Z,92.18
2022-12-22T02:21:47.567Z,92.40
2022-12-22T02:24:47.521Z,92.07
2022-12-22T02:27:38.115Z,91.97
2022-12-22T02:30:30.759Z,92.17
2022-12-22T02:33:22.899Z,91.99
2022-12-22T02:36:23.864Z,92.13
2022-12-22T02:39:24.652Z,92.28
2022-12-22T02:42:24.886Z,91.97
2022-12-22T02:45:24.236Z,92.54
2022-12-22T02:48:21.161Z,92.10
2022-12-22T02:51:16.649Z,92.44
2022-12-22T02:54:07.665Z,92.56
2022-12-22T02:56:58.594Z,92.41
2022-12-22T02:59:48.567Z,92.51
2022-12-22T03:02:39.315Z,92.17
2022-12-22T03:05:29.717Z,92.35
2022-12-22T03:08:19.930Z,92.24
2022-12-22T03:11:10.185Z,92.32
2022-12-22T03:14:00.151Z,92.22
2022-12-22T03:16:49.876Z,92.42
2022-12-22T03:19:40.068Z,92.25
2022-12-22T03:22:30.283Z,92.57
2022-12-22T03:25:20.283Z,92.77
2022-12-22T03:27:52.623Z,92.35
2022-12-22T03:30:24.939Z,92.82
2022-12-22T03:32:57.320Z,92.68
2022-12-22T03:35:29.915Z,93.06
2022-12-22T03:38:03.658Z,92.76
2022-12-22T03:40:36.223Z,92.70
2022-12-22T03:43:26.106Z,92.60
2022-12-22T03:46:16.756Z,92.91
2022-12-22T03:49:09.799Z,93.07
2022-12-22T03:51:44.795Z,92.88
2022-12-22T03:54:19.467Z,93.04
2022-12-22T03:56:52.563Z,92.62
2022-12-22T03:59:24.862Z,93.28
2022-12-22T04:01:57.456Z,93.36
2022-12-22T04:04:29.971Z,93.30
2022-12-22T04:07:02.470Z,93.26
2022-12-22T04:09:34.843Z,93.31
2022-12-22T04:12:27.163Z,92.88
2022-12-22T04:14:59.564Z,93.21
2022-12-22T04:17:31.857Z,93.32
2022-12-22T04:20:04.392Z,93.57
2022-12-22T04:22:36.757Z,93.75
2022-12-22T04:25:10.859Z,93.63
2022-12-22T04:27:43.500Z,93.60
2022-12-22T04:30:17.111Z,93.80
2022-12-22T04:32:49.506Z,93.59
2022-12-22T04:35:22.125Z,93.53
2022-12-22T04:37:54.470Z,93.78
2022-12-22T04:40:26.844Z,93.82
2022-12-22T04:42:59.193Z,93.50
2022-12-22T04:45:31.569Z,93.67
2022-12-22T04:48:03.917Z,93.79
2022-12-22T04:50:36.489Z,93.93
2022-12-22T04:53:08.890Z,94.01
2022-12-22T04:55:46.099Z,93.88
2022-12-22T04:58:18.656Z,93.70
2022-12-22T05:00:51.062Z,94.26
2022-12-22T05:03:24.238Z,94.46
2022-12-22T05:05:56.667Z,94.16
2022-12-22T05:08:28.921Z,94.36
2022-12-22T05:11:03.052Z,94.16
2022-12-22T05:13:36.347Z,94.64
2022-12-22T05:16:12.356Z,94.55
2022-12-22T05:18:46.545Z,94.57
2022-12-22T05:21:21.179Z,94.35
2022-12-22T05:23:53.807Z,94.22
2022-12-22T05:26:26.304Z,94.43
2022-12-22T05:28:58.621Z,94.39
2022-12-22T05:31:31.087Z,94.34
2022-12-22T05:34:03.529Z,94.32
2022-12-22T05:36:36.206Z,94.69
2022-12-22T05:39:09.371Z,94.16
2022-12-22T05:41:41.758Z,94.38
2022-12-22T05:44:14.068Z,94.49
2022-12-22T05:46:46.560Z,94.94
2022-12-22T05:49:18.994Z,94.51
2022-12-22T05:51:54.109Z,94.35
2022-12-22T05:54:24.912Z,94.32
2022-12-22T05:56:57.310Z,94.83
2022-12-22T05:59:29.633Z,94.72
2022-12-22T06:02:02.149Z,94.83
2022-12-22T06:04:34.660Z,94.78
2022-12-22T06:07:06.987Z,94.83
2022-12-22T06:09:39.381Z,94.97
2022-12-22T06:12:12.063Z,94.93
2022-12-22T06:14:44.767Z,95.08
2022-12-22T06:17:17.093Z,94.87
2022-12-22T06:19:49.436Z,94.90
2022-12-22T06:22:21.837Z,94.92
2022-12-22T06:24:54.238Z,94.82
2022-12-22T06:27:26.589Z,94.79
2022-12-22T06:29:58.930Z,94.94
2022-12-22T06:32:31.301Z,95.11
2022-12-22T06:35:03.627Z,94.79
2022-12-22T06:37:36.068Z,94.81
2022-12-22T06:40:10.990Z,94.68
2022-12-22T06:43:08.147Z,94.81
2022-12-22T06:45:43.520Z,94.87
2022-12-22T06:48:16.191Z,94.79
2022-12-22T06:50:48.513Z,94.98
2022-12-22T06:53:20.882Z,94.95
2022-12-22T06:55:53.251Z,94.81
2022-12-22T06:58:25.678Z,94.90
2022-12-22T07:00:59.892Z,94.98
2022-12-22T07:03:32.248Z,94.99
2022-12-22T07:06:04.672Z,95.03
2022-12-22T07:08:37.051Z,95.21
2022-12-22T07:11:09.667Z,94.78
2022-12-22T07:13:42.044Z,94.91
2022-12-22T07:16:14.732Z,94.87
2022-12-22T07:18:47.118Z,95.23
2022-12-22T07:21:19.492Z,95.02
2022-12-22T07:23:51.812Z,95.07
2022-12-22T07:26:24.109Z,94.98
2022-12-22T07:28:56.483Z,95.05
2022-12-22T07:31:28.862Z,95.04
2022-12-22T07:34:01.256Z,94.96
2022-12-22T07:36:33.605Z,94.80
2022-12-22T07:39:06.238Z,94.73
2022-12-22T07:41:56.393Z,94.91
2022-12-22T07:44:28.754Z,94.95
2022-12-22T07:47:01.223Z,95.37
2022-12-22T07:49:59.553Z,94.96
2022-12-22T07:52:31.890Z,95.13
2022-12-22T07:55:04.196Z,94.77
2022-12-22T07:57:37.181Z,94.85
2022-12-22T08:00:12.378Z,94.77
2022-12-22T08:02:43.680Z,95.21
2022-12-22T08:05:16.396Z,95.22
2022-12-22T08:07:51.183Z,95.08
2022-12-22T08:10:23.559Z,95.11
2022-12-22T08:12:57.031Z,95.12
2022-12-22T08:15:29.503Z,94.88
2022-12-22T08:18:01.961Z,95.07
2022-12-22T08:20:34.356Z,94.93
2022-12-22T08:23:06.926Z,95.14
2022-12-22T08:25:39.361Z,95.18
2022-12-22T08:28:15.285Z,95.04
2022-12-22T08:30:48.757Z,94.96
2022-12-22T08:33:21.108Z,95.07
2022-12-22T08:35:53.611Z,95.20
2022-12-22T08:38:26.160Z,94.85
2022-12-22T08:40:59.144Z,94.84
2022-12-22T08:43:33.948Z,95.11
2022-12-22T08:46:06.591Z,94.98
2022-12-22T08:48:38.936Z,95.37
2022-12-22T08:51:11.350Z,95.18
2022-12-22T08:54:04.483Z,95.12
2022-12-22T08:56:36.475Z,94.88
2022-12-22T08:59:09.769Z,95.06
2022-12-22T09:01:44.593Z,95.41
2022-12-22T09:04:18.559Z,95.23
2022-12-22T09:06:52.393Z,94.99
2022-12-22T09:09:24.780Z,95.04
2022-12-22T09:11:57.264Z,94.92
2022-12-22T09:14:30.565Z,95.30
2022-12-22T09:17:03.144Z,95.23
2022-12-22T09:19:35.589Z,95.03
2022-12-22T09:22:07.985Z,95.13
2022-12-22T09:24:40.257Z,95.08
2022-12-22T09:27:13.174Z,94.84
2022-12-22T09:29:45.488Z,94.93
2022-12-22T09:32:17.956Z,95.14
2022-12-22T09:34:50.288Z,95.11
2022-12-22T09:37:22.583Z,95.39
2022-12-22T09:39:54.955Z,95.11
2022-12-22T09:42:27.407Z,95.35
2022-12-22T09:44:59.751Z,95.31
2022-12-22T09:47:37.966Z,95.34
2022-12-22T09:50:18.303Z,95.27
2022-12-22T09:52:54.491Z,95.39
2022-12-22T09:55:40.734Z,95.38
2022-12-22T09:58:27.196Z,95.54
2022-12-22T10:01:10.127Z,95.44
2022-12-22T10:03:52.738Z,95.53
2022-12-22T10:06:35.945Z,95.50
2022-12-22T10:09:46.331Z,95.54
2022-12-22T10:12:14.947Z,95.55
2022-12-22T10:14:49.374Z,95.68
2022-12-22T10:17:26.016Z,95.48
2022-12-22T10:20:26.568Z,95.73
2022-12-22T10:23:02.023Z,95.60
2022-12-22T10:26:26.774Z,96.01
2022-12-22T10:28:39.944Z,96.22
2022-12-22T10:31:23.745Z,96.35
2022-12-22T10:33:59.982Z,96.12
2022-12-22T10:36:34.192Z,96.46
2022-12-22T10:39:09.693Z,96.67
2022-12-22T10:41:45.384Z,96.44
2022-12-22T10:44:25.307Z,96.77
2022-12-22T10:46:59.583Z,96.70
2022-12-22T10:52:17.780Z,96.85
2022-12-22T10:54:50.906Z,96.61
2022-12-22T10:57:31.986Z,96.51
2022-12-22T11:00:23.329Z,96.39
2022-12-22T11:02:57.988Z,96.37
2022-12-22T11:05:31.099Z,96.45
2022-12-22T11:08:21.920Z,96.44
2022-12-22T11:10:58.651Z,96.59
2022-12-22T11:13:48.519Z,96.52
2022-12-22T11:16:27.133Z,96.17
2022-12-22T11:19:12.171Z,96.11
2022-12-22T11:21:52.174Z,96.03
2022-12-22T11:24:33.635Z,96.14
2022-12-22T11:27:23.080Z,95.84
2022-12-22T11:30:14.044Z,95.65
2022-12-22T11:32:59.604Z,95.62
2022-12-22T11:35:45.974Z,96.03
2022-12-22T11:38:30.329Z,95.70
2022-12-22T11:41:12.738Z,95.94
2022-12-22T11:44:01.730Z,95.69
2022-12-22T11:46:44.695Z,95.72
2022-12-22T11:49:46.280Z,95.40
2022-12-22T11:52:35.017Z,95.26
2022-12-22T11:55:29.121Z,95.55
2022-12-22T11:58:23.571Z,95.41
2022-12-22T12:01:16.312Z,95.53
2022-12-22T12:04:20.085Z,95.63
2022-12-22T12:07:25.170Z,95.67
2022-12-22T12:10:08.160Z,95.70
2022-12-22T12:12:52.900Z,95.86
2022-12-22T12:15:38.081Z,95.83
2022-12-22T12:18:39.548Z,96.09
2022-12-22T12:21:30.506Z,95.80
2022-12-22T12:24:19.571Z,95.75
2022-12-22T12:27:03.569Z,95.90
2022-12-22T12:29:41.732Z,95.96
2022-12-22T12:32:18.201Z,95.74
2022-12-22T12:34:58.889Z,95.59
2022-12-22T12:37:38.286Z,95.67
2022-12-22T12:40:30.823Z,95.56
2022-12-22T12:43:04.787Z,95.37
2022-12-22T12:45:39.873Z,95.33
2022-12-22T12:48:43.742Z,95.36
2022-12-22T12:51:48.713Z,95.19
2022-12-22T12:54:41.148Z,95.16
2022-12-22T12:57:28.184Z,95.33
2022-12-22T13:00:01.685Z,95.46
2022-12-22T13:02:57.160Z,95.13
2022-12-22T13:05:36.704Z,95.20
2022-12-22T13:08:26.397Z,94.94
2022-12-22T13:14:57.635Z,95.06
2022-12-22T13:17:42.852Z,94.97
2022-12-22T13:20:22.230Z,95.39
2022-12-22T13:22:58.183Z,95.41
2022-12-22T13:25:42.658Z,95.19
2022-12-22T13:28:18.597Z,95.29
2022-12-22T13:30:54.550Z,95.06
2022-12-22T13:33:30.385Z,95.09
2022-12-22T13:36:04.114Z,95.17
2022-12-22T13:38:38.812Z,95.13
2022-12-22T13:41:22.985Z,95.18
2022-12-22T13:44:05.683Z,95.24
2022-12-22T13:46:39.247Z,95.19
2022-12-22T13:49:30.151Z,95.14
2022-12-22T13:52:13.363Z,95.03
2022-12-22T13:54:46.869Z,95.22
2022-12-22T13:57:22.905Z,95.20
2022-12-22T13:59:56.017Z,95.07
2022-12-22T14:02:34.900Z,95.06
2022-12-22T14:05:10.242Z,94.82
2022-12-22T14:07:57.914Z,94.88
2022-12-22T14:10:34.237Z,94.89
2022-12-22T14:13:13.206Z,94.82
2022-12-22T14:15:46.466Z,94.85
2022-12-22T14:18:23.531Z,94.92
2022-12-22T14:20:56.808Z,94.75
2022-12-22T14:23:32.067Z,94.67
2022-12-22T14:26:09.487Z,94.67
2022-12-22T14:28:50.815Z,94.95
2022-12-22T14:31:23.509Z,94.89
2022-12-22T14:34:05.384Z,94.89
2022-12-22T14:36:46.036Z,95.05
2022-12-22T14:39:26.000Z,94.87
2022-12-22T14:42:01.049Z,94.79
2022-12-22T14:44:37.790Z,94.64
2022-12-22T14:47:21.639Z,94.86
2022-12-22T14:49:57.041Z,94.85
2022-12-22T14:52:36.037Z,94.89
2022-12-22T14:55:23.729Z,94.79
2022-12-22T14:57:59.011Z,94.66
2022-12-22T15:00:36.016Z,94.66
2022-12-22T15:03:22.844Z,94.50
2022-12-22T15:05:55.840Z,94.48
2022-12-22T15:08:44.011Z,94.85
2022-12-22T15:11:19.420Z,94.79
2022-12-22T15:13:52.952Z,94.82
2022-12-22T15:16:26.453Z,94.52
2022-12-22T15:18:59.139Z,94.72
2022-12-22T15:21:31.722Z,94.76
2022-12-22T15:24:05.261Z,94.72
2022-12-22T15:26:38.069Z,94.71
2022-12-22T15:29:10.646Z,94.72
2022-12-22T15:31:44.157Z,94.53
2022-12-22T15:34:19.703Z,94.66
2022-12-22T15:36:52.222Z,94.59
2022-12-22T15:39:25.762Z,94.46
2022-12-22T15:41:58.299Z,94.39
2022-12-22T15:44:35.220Z,94.59
2022-12-22T15:47:13.237Z,94.57
2022-12-22T15:49:45.583Z,94.68
2022-12-22T15:52:17.912Z,94.70
2022-12-22T15:54:50.384Z,94.66
2022-12-22T15:57:22.934Z,94.78
2022-12-22T15:59:55.288Z,94.88
2022-12-22T16:02:27.748Z,95.00
2022-12-22T16:05:01.050Z,94.72
2022-12-22T16:07:34.500Z,94.88
2022-12-22T16:10:09.792Z,94.80
2022-12-22T16:12:43.264Z,94.64
2022-12-22T16:15:17.299Z,94.96
2022-12-22T16:17:52.179Z,94.81
2022-12-22T16:20:24.919Z,94.86
2022-12-22T16:22:57.541Z,94.61
2022-12-22T16:25:34.168Z,94.63
2022-12-22T16:28:08.253Z,94.85
2022-12-22T16:30:41.854Z,94.67
2022-12-22T16:33:15.690Z,94.85
2022-12-22T16:35:48.495Z,94.81
2022-12-22T16:38:20.945Z,94.79
2022-12-22T16:40:54.822Z,94.86
2022-12-22T16:46:26.154Z,94.85
2022-12-22T16:49:01.022Z,95.11
2022-12-22T16:51:36.970Z,94.58
2022-12-22T16:54:14.438Z,94.91
2022-12-22T16:56:47.630Z,94.52
2022-12-22T16:59:20.141Z,94.74
2022-12-22T17:01:56.655Z,94.72
2022-12-22T17:04:32.137Z,94.72
2022-12-22T17:07:04.983Z,94.73
2022-12-22T17:09:43.456Z,94.96
2022-12-22T17:12:19.449Z,94.66
2022-12-22T17:14:52.790Z,94.66
2022-12-22T17:17:31.870Z,94.63
2022-12-22T17:20:06.195Z,94.80
2022-12-22T17:22:39.316Z,94.87
2022-12-22T17:25:19.359Z,94.58
2022-12-22T17:27:52.122Z,94.82
2022-12-22T17:30:27.171Z,94.92
2022-12-22T17:32:57.987Z,94.87
2022-12-22T17:35:33.389Z,94.81
2022-12-22T17:38:05.759Z,94.79
2022-12-22T17:40:38.767Z,94.91
2022-12-22T17:43:15.266Z,94.90
2022-12-22T17:45:48.657Z,94.67
2022-12-22T17:48:20.963Z,95.02
2022-12-22T17:50:53.376Z,94.77
2022-12-22T17:53:25.932Z,94.90
2022-12-22T17:56:09.320Z,94.78
2022-12-22T17:58:43.504Z,94.64
2022-12-22T18:01:31.105Z,94.84
2022-12-22T18:04:03.823Z,94.72
2022-12-22T18:06:39.706Z,94.69
2022-12-22T18:09:21.786Z,94.86
2022-12-22T18:11:54.476Z,94.88
2022-12-22T18:14:27.621Z,94.86
2022-12-22T18:16:59.976Z,95.04
2022-12-22T18:19:32.441Z,94.88
2022-12-22T18:22:04.992Z,94.98
2022-12-22T18:24:37.466Z,95.01
2022-12-22T18:27:12.938Z,94.79
2022-12-22T18:29:45.747Z,94.98
2022-12-22T18:32:26.414Z,95.00
2022-12-22T18:34:59.731Z,95.03
2022-12-22T18:37:32.106Z,95.01
2022-12-22T18:40:05.364Z,95.00
2022-12-22T18:42:37.927Z,94.88
2022-12-22T18:45:16.407Z,94.89
2022-12-22T18:47:48.821Z,95.16
2022-12-22T18:50:24.608Z,95.01
2022-12-22T18:53:01.348Z,94.95
2022-12-22T18:55:34.775Z,94.82
2022-12-22T18:58:07.070Z,94.98
2022-12-22T19:00:39.633Z,95.11
2022-12-22T19:03:20.900Z,95.18
2022-12-22T19:05:53.583Z,94.76
2022-12-22T19:08:28.230Z,94.92
2022-12-22T19:11:04.986Z,95.08
2022-12-22T19:13:40.100Z,95.18
2022-12-22T19:16:12.813Z,95.27
2022-12-22T19:18:45.313Z,95.44
2022-12-22T19:21:19.184Z,95.34
2022-12-22T19:23:51.588Z,95.42
2022-12-22T19:26:26.585Z,95.37
2022-12-22T19:29:01.356Z,95.31
2022-12-22T19:31:37.299Z,95.38
2022-12-22T19:34:16.539Z,95.37
2022-12-22T19:36:48.972Z,95.42
2022-12-22T19:39:21.215Z,95.34
2022-12-22T19:41:55.587Z,95.40
2022-12-22T19:44:30.876Z,95.44
2022-12-22T19:47:04.617Z,95.25
2022-12-22T19:49:37.119Z,95.44
2022-12-22T19:52:11.984Z,95.60
2022-12-22T19:54:44.256Z,95.44
2022-12-22T19:57:22.704Z,95.65
2022-12-22T19:59:56.538Z,95.58
2022-12-22T20:02:31.814Z,95.76
2022-12-22T20:05:08.836Z,95.87
2022-12-22T20:07:44.062Z,95.77
2022-12-22T20:10:16.641Z,95.85
2022-12-22T20:12:51.212Z,95.99
2022-12-22T20:15:26.052Z,95.94
2022-12-22T20:17:58.988Z,95.78
2022-12-22T20:20:34.456Z,95.96
2022-12-22T20:23:13.079Z,96.29
2022-12-22T20:25:47.970Z,96.19
2022-12-22T20:28:23.326Z,95.91
2022-12-22T20:30:56.514Z,96.09
2022-12-22T20:33:29.588Z,95.91
2022-12-22T20:36:03.959Z,96.06
2022-12-22T20:38:38.404Z,96.17
2022-12-22T20:41:12.475Z,96.10
2022-12-22T20:43:45.169Z,96.04
2022-12-22T20:46:21.053Z,96.14
2022-12-22T20:48:57.027Z,95.97
2022-12-22T20:51:32.447Z,96.25
2022-12-22T20:54:04.928Z,96.20
2022-12-22T20:56:39.750Z,96.23
2022-12-22T20:59:16.643Z,96.31
2022-12-22T21:01:50.734Z,96.11
2022-12-22T21:04:23.246Z,96.35
2022-12-22T21:06:57.254Z,96.48
2022-12-22T21:09:29.618Z,96.18
2022-12-22T21:12:02.062Z,96.50
2022-12-22T21:14:34.535Z,96.26
2022-12-22T21:17:43.302Z,96.24
2022-12-22T21:20:24.435Z,96.22
2022-12-22T21:22:56.844Z,96.30
2022-12-22T21:25:29.318Z,96.19
2022-12-22T21:28:02.607Z,96.42
2022-12-22T21:30:35.079Z,96.41
2022-12-22T21:33:07.557Z,96.37
2022-12-22T21:35:40.209Z,96.16
2022-12-22T21:38:19.012Z,96.34
2022-12-22T21:40:51.357Z,96.34
2022-12-22T21:43:24.014Z,96.21
2022-12-22T21:45:56.373Z,96.29
2022-12-22T21:48:28.758Z,96.41
2022-12-22T21:51:01.655Z,96.63
2022-12-22T21:53:34.148Z,96.32
2022-12-22T21:56:17.296Z,96.36
2022-12-22T21:58:49.598Z,96.38
2022-12-22T22:01:21.941Z,96.51
2022-12-22T22:03:54.368Z,96.37
2022-12-22T22:06:26.841Z,96.42
2022-12-22T22:08:59.211Z,96.62
2022-12-22T22:11:31.827Z,96.45
2022-12-22T22:14:04.263Z,96.50
2022-12-22T22:16:37.071Z,96.40
2022-12-22T22:19:09.601Z,96.44
2022-12-22T22:21:42.229Z,96.52
2022-12-22T22:24:15.172Z,96.48
2022-12-22T22:26:50.559Z,96.51
2022-12-22T22:29:23.142Z,96.61
2022-12-22T22:31:55.462Z,96.40
2022-12-22T22:34:27.877Z,96.74
2022-12-22T22:37:00.203Z,96.52
2022-12-22T22:39:32.677Z,96.73
2022-12-22T22:42:05.232Z,96.69
2022-12-22T22:44:37.606Z,96.80
2022-12-22T22:47:10.004Z,96.69
2022-12-22T22:49:42.428Z,96.78
2022-12-22T22:52:14.832Z,96.95
2022-12-22T22:54:47.224Z,96.60
2022-12-22T22:57:19.904Z,96.74
2022-12-22T22:59:52.255Z,96.97
2022-12-22T23:02:24.737Z,96.79
2022-12-22T23:04:57.280Z,96.71
2022-12-22T23:07:29.630Z,96.79
2022-12-22T23:10:02.084Z,96.60
2022-12-22T23:12:34.576Z,96.88
2022-12-22T23:15:09.927Z,97.00
2022-12-22T23:17:42.226Z,96.90
2022-12-22T23:20:14.912Z,96.94
2022-12-22T23:22:47.344Z,96.83
2022-12-22T23:25:19.976Z,96.73
2022-12-22T23:27:52.323Z,96.85
2022-12-22T23:30:24.774Z,96.97
2022-12-22T23:32:57.095Z,96.80
2022-12-22T23:35:29.495Z,96.78
2022-12-22T23:38:01.869Z,96.64
2022-12-22T23:40:51.714Z,96.76
2022-12-22T23:43:25.684Z,96.80
2022-12-22T23:45:58.029Z,96.87
2022-12-22T23:48:30.348Z,96.84
2022-12-22T23:51:02.753Z,97.03
2022-12-22T23:53:35.548Z,97.10
2022-12-22T23:56:08.639Z,96.89
2022-12-22T23:58:41.080Z,96.88
